Time;durP1;ratioP1;P1;durP2;ratioP2;P2;SDS_P1;SDS_P2;PMS_P1;PMS_P2;Temp;Humidity;BMP_temperature;BMP_pressure;BME280_temperature;BME280_humidity;BME280_pressure;Samples;Min_cycle;Max_cycle;Signal;HPM_P1;HPM_P2
2022/08/13 00:00:14;;;;;;;3.83;3.30;;;;;;;20.57;62.30;98155.63;4173235;28;20627;-78
2022/08/13 00:02:19;;;;;;;3.30;3.00;;;;;;;20.53;62.14;98155.13;4158538;28;20662;-78
2022/08/13 00:04:26;;;;;;;4.00;3.60;;;;;;;20.46;62.91;98150.63;4161630;28;20640;-78
2022/08/13 00:07:02;;;;;;;5.00;3.40;;;;;;;20.41;64.02;98145.81;4172212;28;20627;-78
2022/08/13 00:09:09;;;;;;;4.80;3.60;;;;;;;20.37;63.71;98152.47;4164702;28;20679;-78
2022/08/13 00:13:57;;;;;;;4.03;3.60;;;;;;;20.22;63.15;98147.97;4171664;28;20639;-78
2022/08/13 00:16:04;;;;;;;8.03;3.63;;;;;;;20.13;63.35;98141.00;4174963;28;21188;-78
2022/08/13 00:18:11;;;;;;;3.60;3.30;;;;;;;20.05;63.20;98138.31;4173946;28;20715;-78
2022/08/13 00:20:27;;;;;;;4.33;3.93;;;;;;;20.05;63.37;98135.66;4172862;28;20734;-78
2022/08/13 00:22:30;;;;;;;4.20;3.77;;;;;;;20.02;64.20;98132.50;4175491;28;20678;-78
2022/08/13 00:24:34;;;;;;;4.27;3.60;;;;;;;20.00;64.61;98126.56;4172412;28;20871;-78
2022/08/13 00:26:38;;;;;;;3.80;3.40;;;;;;;19.97;63.58;98121.59;4173676;28;21270;-78
2022/08/13 00:28:49;;;;;;;4.30;3.90;;;;;;;19.92;64.03;98123.88;4170917;28;20640;-78
2022/08/13 00:30:53;;;;;;;4.30;3.90;;;;;;;19.85;63.85;98122.84;4172364;28;20656;-78
2022/08/13 00:32:59;;;;;;;4.67;3.80;;;;;;;19.81;64.26;98118.84;4157904;28;20643;-78
2022/08/13 00:35:02;;;;;;;4.40;4.00;;;;;;;19.76;64.15;98123.81;4175656;28;21070;-78
2022/08/13 00:37:11;;;;;;;4.40;4.00;;;;;;;19.71;64.11;98118.16;4173253;28;21249;-78
2022/08/13 00:39:16;;;;;;;4.43;3.80;;;;;;;19.59;65.02;98124.75;4169167;28;20636;-78
2022/08/13 00:44:00;;;;;;;5.10;3.40;;;;;;;19.41;65.74;98121.34;4173036;28;21270;-78
2022/08/13 00:46:04;;;;;;;3.93;3.53;;;;;;;19.37;66.05;98126.28;4155600;28;21205;-78
2022/08/13 00:50:31;;;;;;;3.70;3.40;;;;;;;19.27;66.23;98122.91;4192673;28;21104;-78
2022/08/13 00:52:40;;;;;;;5.43;3.80;;;;;;;19.25;66.17;98111.69;4170019;28;20689;-78
2022/08/13 00:54:44;;;;;;;3.90;3.53;;;;;;;19.19;66.89;98102.53;4148005;28;20622;-78
2022/08/13 00:56:57;;;;;;;4.70;3.77;;;;;;;19.15;66.94;98108.31;4166917;28;20728;-78
2022/08/13 00:59:03;;;;;;;5.20;3.70;;;;;;;19.09;67.03;98101.00;4155072;28;20616;-78
2022/08/13 01:01:07;;;;;;;4.63;3.73;;;;;;;19.07;67.13;98110.91;4167079;28;20669;-78
2022/08/13 01:03:21;;;;;;;4.77;3.80;;;;;;;19.05;67.46;98111.06;4185430;28;20635;-78
2022/08/13 01:05:47;;;;;;;7.63;3.97;;;;;;;19.05;67.01;98110.25;4175286;28;20636;-79
2022/08/13 01:07:51;;;;;;;4.30;3.90;;;;;;;19.03;66.86;98113.03;4169416;28;20711;-78
2022/08/13 01:10:01;;;;;;;4.33;3.47;;;;;;;18.98;67.55;98109.16;4170551;28;21099;-79
2022/08/13 01:12:23;;;;;;;5.17;3.87;;;;;;;18.90;67.27;98099.38;4157665;28;21171;-79
2022/08/13 01:14:32;;;;;;;4.60;4.20;;;;;;;18.85;67.56;98103.44;4149730;28;20676;-78
2022/08/13 01:16:36;;;;;;;4.47;4.07;;;;;;;18.84;67.70;98107.09;4164458;28;20639;-78
2022/08/13 01:18:42;;;;;;;3.90;3.60;;;;;;;18.84;67.22;98109.75;4188967;28;20680;-78
2022/08/13 01:20:47;;;;;;;4.50;4.10;;;;;;;18.80;67.36;98107.56;4175223;28;20659;-78
2022/08/13 01:22:53;;;;;;;4.30;3.90;;;;;;;18.72;67.65;98105.69;4153439;28;20696;-78
2022/08/13 01:24:57;;;;;;;5.00;4.13;;;;;;;18.70;68.58;98109.47;4156767;28;20637;-79
2022/08/13 01:27:01;;;;;;;4.33;3.93;;;;;;;18.63;68.32;98109.25;4174567;28;20631;-78
2022/08/13 01:29:08;;;;;;;4.27;3.87;;;;;;;18.60;68.76;98114.84;4169459;28;21239;-78
2022/08/13 01:31:15;;;;;;;5.20;4.17;;;;;;;18.56;68.83;98121.41;4169555;28;21215;-78
2022/08/13 01:33:22;;;;;;;3.93;3.57;;;;;;;18.54;68.63;98120.75;4167451;28;20639;-78
2022/08/13 01:35:26;;;;;;;3.97;3.67;;;;;;;18.53;68.89;98121.72;4173858;28;20720;-78
2022/08/13 01:37:30;;;;;;;5.87;4.40;;;;;;;18.53;68.47;98120.88;4153261;28;20876;-78
2022/08/13 01:39:38;;;;;;;4.10;3.70;;;;;;;18.50;68.35;98119.38;4155352;28;20970;-78
2022/08/13 01:41:43;;;;;;;4.50;4.07;;;;;;;18.45;68.65;98113.72;4164699;28;20632;-78
2022/08/13 01:44:04;;;;;;;4.57;4.00;;;;;;;18.41;69.00;98108.91;4162224;28;20636;-78
2022/08/13 01:46:21;;;;;;;5.10;4.57;;;;;;;18.37;68.99;98117.28;4171060;28;20654;-78
2022/08/13 01:50:59;;;;;;;4.10;3.80;;;;;;;18.29;69.07;98104.00;4171421;28;20670;-78
2022/08/13 01:53:05;;;;;;;6.23;4.03;;;;;;;18.22;70.32;98103.78;4170391;28;20636;-78
2022/08/13 01:55:10;;;;;;;4.97;4.47;;;;;;;18.15;70.10;98096.63;4156522;28;20659;-78
2022/08/13 01:57:18;;;;;;;6.47;4.27;;;;;;;18.13;70.01;98101.19;4197949;28;20648;-78
2022/08/13 01:59:21;;;;;;;5.50;4.10;;;;;;;18.14;69.88;98105.50;4170449;28;20624;-78
2022/08/13 02:01:27;;;;;;;6.97;4.10;;;;;;;18.12;70.61;98110.91;4170256;28;20650;-78
2022/08/13 02:03:48;;;;;;;4.87;4.40;;;;;;;18.13;70.67;98111.75;4155960;28;20648;-78
2022/08/13 02:05:55;;;;;;;4.30;3.93;;;;;;;18.10;70.30;98110.25;4176179;28;20627;-78
2022/08/13 02:08:22;;;;;;;5.10;4.10;;;;;;;18.05;70.75;98114.31;4156145;28;20658;-78
2022/08/13 02:10:28;;;;;;;5.23;4.07;;;;;;;17.99;71.21;98114.91;4175791;28;21233;-78
2022/08/13 02:12:31;;;;;;;4.47;3.70;;;;;;;17.97;70.50;98107.13;4172809;28;20679;-78
2022/08/13 02:14:42;;;;;;;4.70;4.30;;;;;;;17.98;70.42;98110.59;4169852;28;21211;-78
2022/08/13 02:16:48;;;;;;;5.00;4.40;;;;;;;17.92;70.95;98098.03;4157840;28;20635;-78
2022/08/13 02:18:55;;;;;;;4.43;4.03;;;;;;;17.88;71.53;98101.94;4171940;28;20742;-78
2022/08/13 02:21:01;;;;;;;6.80;4.10;;;;;;;17.91;70.13;98099.00;4175954;28;20701;-78
2022/08/13 02:23:21;;;;;;;5.00;4.60;;;;;;;17.87;70.75;98094.97;4171555;28;21564;-78
2022/08/13 02:25:46;;;;;;;4.30;3.90;;;;;;;17.85;71.64;98096.94;4170272;28;20639;-78
2022/08/13 02:28:00;;;;;;;6.67;4.17;;;;;;;17.83;71.35;98098.91;4174255;28;20699;-78
2022/08/13 02:30:07;;;;;;;5.80;4.30;;;;;;;17.79;72.35;98100.19;4169949;28;21061;-78
2022/08/13 02:32:12;;;;;;;5.43;4.70;;;;;;;17.74;71.89;98096.31;4174208;28;20750;-78
2022/08/13 02:34:19;;;;;;;4.53;4.10;;;;;;;17.71;70.80;98109.81;4172903;28;21000;-78
2022/08/13 02:36:23;;;;;;;4.70;4.30;;;;;;;17.69;71.59;98103.84;4152448;28;20636;-78
2022/08/13 02:38:29;;;;;;;5.40;4.60;;;;;;;17.66;71.49;98104.97;4175567;28;20702;-78
2022/08/13 02:43:03;;;;;;;4.53;4.13;;;;;;;17.54;72.27;98114.06;4137323;28;20687;-78
2022/08/13 02:45:08;;;;;;;5.80;4.17;;;;;;;17.49;72.95;98104.94;4169472;28;20658;-78
2022/08/13 02:47:15;;;;;;;4.77;4.37;;;;;;;17.45;72.49;98106.19;4148652;28;20667;-78
2022/08/13 02:49:21;;;;;;;5.83;4.00;;;;;;;17.45;72.72;98108.03;4166952;28;20631;-79
2022/08/13 02:51:32;;;;;;;4.00;3.60;;;;;;;17.43;72.93;98104.72;4154735;28;21221;-80
2022/08/13 02:53:55;;;;;;;5.53;4.40;;;;;;;17.40;72.42;98116.38;4171025;28;21047;-80
2022/08/13 02:56:00;;;;;;;5.13;4.63;;;;;;;17.37;72.01;98100.84;4168233;28;20635;-79
2022/08/13 02:58:07;;;;;;;4.30;3.90;;;;;;;17.39;72.42;98106.78;4176113;28;20642;-80
2022/08/13 03:00:12;;;;;;;5.33;4.20;;;;;;;17.39;73.22;98105.97;4177140;28;20986;-80
2022/08/13 03:02:17;;;;;;;4.70;4.30;;;;;;;17.43;71.58;98104.72;4156118;28;20643;-79
2022/08/13 03:04:22;;;;;;;4.40;3.97;;;;;;;17.42;73.34;98098.56;4169029;28;20650;-80
2022/08/13 03:06:36;;;;;;;4.90;4.50;;;;;;;17.41;73.14;98101.38;4173046;28;20630;-79
2022/08/13 03:08:43;;;;;;;4.73;4.33;;;;;;;17.41;72.64;98111.91;4155677;28;21342;-79
2022/08/13 03:10:46;;;;;;;5.70;4.70;;;;;;;17.40;72.87;98108.47;4173796;28;20640;-79
2022/08/13 03:12:51;;;;;;;5.70;4.80;;;;;;;17.42;73.01;98105.66;4173314;28;21089;-79
2022/08/13 03:14:56;;;;;;;4.67;4.20;;;;;;;17.38;71.79;98107.78;4167306;28;20676;-80
2022/08/13 03:16:59;;;;;;;4.53;4.13;;;;;;;17.33;72.53;98101.28;4175668;28;21216;-79
2022/08/13 03:19:04;;;;;;;4.30;3.90;;;;;;;17.31;73.09;98097.97;4174638;28;20673;-80
2022/08/13 03:21:17;;;;;;;4.90;4.40;;;;;;;17.23;73.71;98098.69;4190561;28;21012;-80
2022/08/13 03:23:40;;;;;;;5.10;4.60;;;;;;;17.17;73.34;98098.38;4176321;28;20700;-79
2022/08/13 03:25:46;;;;;;;4.90;4.50;;;;;;;17.12;72.23;98096.22;4156393;28;20681;-80
2022/08/13 03:27:50;;;;;;;5.00;4.10;;;;;;;17.12;73.76;98100.63;4169908;28;20724;-79
2022/08/13 03:29:59;;;;;;;4.90;4.13;;;;;;;17.08;72.54;98094.81;4173459;28;20675;-79
2022/08/13 03:32:10;;;;;;;4.93;4.47;;;;;;;17.08;73.44;98102.72;4177513;28;21257;-80
2022/08/13 03:34:17;;;;;;;5.00;4.60;;;;;;;17.06;74.35;98102.06;4187173;28;20618;-80
2022/08/13 03:36:24;;;;;;;4.10;3.80;;;;;;;17.07;74.66;98097.59;4167936;28;20626;-79
2022/08/13 03:38:32;;;;;;;4.83;4.10;;;;;;;17.11;74.75;98104.25;4156579;28;20642;-79
2022/08/13 03:42:54;;;;;;;5.10;4.60;;;;;;;17.06;74.77;98112.59;4168404;28;20641;-79
2022/08/13 03:44:59;;;;;;;5.53;4.50;;;;;;;17.01;74.23;98106.91;4175682;28;20666;-79
2022/08/13 03:47:04;;;;;;;5.20;4.30;;;;;;;16.94;74.40;98102.34;4172067;28;21531;-80
2022/08/13 03:49:27;;;;;;;5.17;4.60;;;;;;;16.90;74.04;98106.28;4173764;28;20629;-79
2022/08/13 03:51:31;;;;;;;5.60;5.10;;;;;;;16.86;74.00;98096.16;4157463;28;21024;-80
2022/08/13 03:53:38;;;;;;;6.00;4.80;;;;;;;16.81;76.03;98107.13;4158702;28;20651;-79
2022/08/13 03:55:46;;;;;;;5.90;4.40;;;;;;;16.83;75.15;98093.81;4158501;28;20630;-79
2022/08/13 03:57:50;;;;;;;11.47;4.40;;;;;;;16.86;75.67;98104.88;4168988;28;20630;-79
2022/08/13 04:00:11;;;;;;;7.40;4.63;;;;;;;16.93;74.55;98105.13;4171950;28;20633;-80
2022/08/13 04:02:15;;;;;;;5.03;4.47;;;;;;;16.93;75.93;98102.50;4166928;28;20724;-80
2022/08/13 04:04:20;;;;;;;6.20;4.40;;;;;;;16.91;75.02;98102.63;4170252;28;20630;-79
2022/08/13 04:06:25;;;;;;;5.53;4.60;;;;;;;16.91;75.10;98096.53;4188626;28;21184;-79
2022/08/13 04:08:34;;;;;;;5.57;4.37;;;;;;;16.89;76.15;98096.69;4174448;28;21028;-79
2022/08/13 04:10:38;;;;;;;4.70;4.30;;;;;;;16.89;75.65;98098.50;4172999;28;20715;-79
2022/08/13 04:12:41;;;;;;;5.17;4.60;;;;;;;16.83;74.86;98110.44;4156118;28;20654;-79
2022/08/13 04:14:45;;;;;;;5.30;4.80;;;;;;;16.82;74.90;98108.75;4174925;28;20641;-79
2022/08/13 04:16:50;;;;;;;4.73;4.23;;;;;;;16.83;74.69;98110.44;4161642;28;20629;-79
2022/08/13 04:18:54;;;;;;;4.73;4.13;;;;;;;16.73;74.98;98109.66;4160908;28;20638;-80
2022/08/13 04:21:01;;;;;;;6.60;4.70;;;;;;;16.65;76.13;98106.88;4174100;28;20628;-79
2022/08/13 04:23:06;;;;;;;5.60;4.17;;;;;;;16.60;74.69;98113.53;4174400;28;20727;-80
2022/08/13 04:25:09;;;;;;;7.33;4.63;;;;;;;16.57;76.06;98108.56;4175136;28;20755;-79
2022/08/13 04:27:32;;;;;;;5.27;4.77;;;;;;;16.56;75.78;98106.88;4173126;28;21237;-79
2022/08/13 04:29:35;;;;;;;4.90;4.37;;;;;;;16.58;76.77;98111.06;4173244;28;20645;-79
2022/08/13 04:31:53;;;;;;;5.10;4.60;;;;;;;16.61;75.93;98110.78;4172271;28;20641;-79
2022/08/13 04:33:59;;;;;;;5.20;4.80;;;;;;;16.61;75.29;98117.81;4175701;28;20726;-79
2022/08/13 04:36:22;;;;;;;7.63;4.90;;;;;;;16.60;77.35;98117.00;4166233;28;21276;-80
2022/08/13 04:38:30;;;;;;;5.17;4.67;;;;;;;16.63;75.96;98115.91;4153093;28;20747;-80
2022/08/13 04:40:35;;;;;;;5.50;4.90;;;;;;;16.63;76.53;98116.72;4172964;28;21393;-80
2022/08/13 04:42:55;;;;;;;5.77;5.03;;;;;;;16.60;76.71;98111.72;4172663;28;20697;-80
2022/08/13 04:44:59;;;;;;;5.10;4.53;;;;;;;16.57;74.53;98112.00;4171354;28;21207;-79
2022/08/13 04:47:08;;;;;;;7.80;4.40;;;;;;;16.54;76.33;98111.47;4177740;28;20657;-79
2022/08/13 04:49:12;;;;;;;5.50;5.00;;;;;;;16.47;76.19;98107.72;4173631;28;20633;-79
2022/08/13 04:51:17;;;;;;;5.90;4.97;;;;;;;16.45;75.51;98116.72;4175393;28;21190;-79
2022/08/13 04:53:24;;;;;;;7.27;4.43;;;;;;;16.41;75.55;98121.44;4176053;28;20691;-80
2022/08/13 04:55:28;;;;;;;5.87;4.97;;;;;;;16.44;75.70;98123.00;4173730;28;21191;-80
2022/08/13 04:57:51;;;;;;;5.77;5.27;;;;;;;16.50;76.44;98115.34;4173487;28;20625;-79
2022/08/13 05:00:04;;;;;;;5.20;4.70;;;;;;;16.58;76.98;98121.59;4160166;28;21271;-80
2022/08/13 05:02:08;;;;;;;5.47;4.97;;;;;;;16.62;77.53;98128.22;4188029;28;21250;-80
2022/08/13 05:04:12;;;;;;;5.30;4.80;;;;;;;16.67;76.41;98120.75;4174187;28;20654;-80
2022/08/13 05:06:26;;;;;;;5.50;5.00;;;;;;;16.75;77.31;98120.84;4165381;28;21233;-80
2022/08/13 05:08:32;;;;;;;4.90;4.50;;;;;;;16.82;76.44;98118.47;4174980;28;21120;-79
2022/08/13 05:10:37;;;;;;;6.60;4.53;;;;;;;16.87;76.18;98118.88;4176227;28;20621;-80
2022/08/13 05:12:42;;;;;;;6.53;5.37;;;;;;;16.93;75.93;98116.53;4151194;28;20669;-80
2022/08/13 05:14:48;;;;;;;5.30;4.80;;;;;;;17.00;76.16;98117.59;4172078;28;21219;-79
2022/08/13 05:16:53;;;;;;;4.97;4.50;;;;;;;17.04;75.32;98118.97;4171199;28;20973;-80
2022/08/13 05:19:04;;;;;;;6.00;5.10;;;;;;;17.12;75.67;98127.84;4187866;28;21200;-80
2022/08/13 05:21:09;;;;;;;5.53;5.00;;;;;;;17.19;75.65;98133.34;4186949;28;20711;-80
2022/08/13 05:23:13;;;;;;;6.60;5.63;;;;;;;17.21;74.07;98132.25;4167813;28;20631;-79
2022/08/13 05:25:37;;;;;;;5.00;4.50;;;;;;;17.31;75.33;98133.06;4175605;28;20722;-79
2022/08/13 05:28:00;;;;;;;7.27;5.30;;;;;;;17.48;73.80;98137.56;4167241;28;21139;-80
2022/08/13 05:30:06;;;;;;;5.13;4.73;;;;;;;17.69;74.51;98143.44;4155460;28;21185;-79
2022/08/13 05:32:29;;;;;;;5.53;5.03;;;;;;;17.98;73.68;98144.91;4172658;28;21053;-80
2022/08/13 05:34:53;;;;;;;5.00;4.60;;;;;;;18.29;73.58;98148.91;4171751;28;20650;-79
2022/08/13 05:36:57;;;;;;;5.77;4.80;;;;;;;18.57;71.87;98151.31;4173136;28;20647;-80
2022/08/13 05:39:20;;;;;;;5.00;4.50;;;;;;;18.81;71.27;98159.41;4173188;28;20653;-80
2022/08/13 05:41:27;;;;;;;5.90;4.80;;;;;;;19.08;71.16;98160.19;4166637;28;20778;-80
2022/08/13 05:43:45;;;;;;;9.10;4.60;;;;;;;19.33;69.81;98154.03;4174615;28;21200;-80
2022/08/13 05:45:58;;;;;;;5.67;5.10;;;;;;;19.55;68.65;98157.78;4190977;28;20680;-80
2022/08/13 05:48:08;;;;;;;6.33;5.03;;;;;;;19.80;68.06;98159.56;4174403;28;20623;-80
2022/08/13 05:50:15;;;;;;;5.80;5.03;;;;;;;20.02;68.56;98157.16;4170692;28;21279;-80
2022/08/13 05:52:19;;;;;;;4.83;4.30;;;;;;;20.27;67.13;98158.09;4174142;28;20639;-79
2022/08/13 05:54:42;;;;;;;4.97;4.57;;;;;;;20.56;67.43;98160.09;4170920;28;20640;-79
2022/08/13 05:57:06;;;;;;;5.20;4.70;;;;;;;20.82;65.74;98169.59;4170214;28;20636;-78
2022/08/13 06:03:22;;;;;;;5.20;4.80;;;;;;;21.04;65.16;98170.75;4170594;28;20659;-78
2022/08/13 06:04:15;;;;;;;4.70;4.30;;;;;;;21.52;65.33;98174.16;4174690;28;20632;-78
2022/08/13 06:06:40;;;;;;;5.53;4.80;;;;;;;21.68;63.61;98171.44;4153123;28;21211;-78
2022/08/13 06:08:48;;;;;;;5.30;4.80;;;;;;;21.79;63.79;98174.56;4169855;28;20661;-79
2022/08/13 06:10:52;;;;;;;5.60;4.60;;;;;;;21.93;63.63;98160.56;4169994;28;20637;-78
2022/08/13 06:12:56;;;;;;;5.43;4.93;;;;;;;22.15;62.38;98173.09;4175472;28;20645;-78
2022/08/13 06:15:01;;;;;;;4.97;4.47;;;;;;;22.37;62.67;98171.31;4171637;28;20639;-78
2022/08/13 06:17:12;;;;;;;5.27;4.53;;;;;;;22.58;62.31;98174.19;4171138;28;20753;-78
2022/08/13 06:19:22;;;;;;;5.10;4.60;;;;;;;22.75;62.08;98175.72;4156592;28;20650;-78
2022/08/13 06:21:29;;;;;;;4.50;4.10;;;;;;;22.96;62.21;98173.25;4198493;28;20664;-78
2022/08/13 06:23:53;;;;;;;4.57;4.17;;;;;;;23.16;61.34;98177.88;4184472;28;20714;-79
2022/08/13 06:25:57;;;;;;;4.87;4.07;;;;;;;23.30;60.43;98175.25;4172019;28;20648;-78
2022/08/13 06:28:04;;;;;;;5.37;4.10;;;;;;;23.57;60.29;98174.63;4157850;28;20644;-79
2022/08/13 06:30:09;;;;;;;4.50;4.10;;;;;;;23.82;60.28;98174.19;4174950;28;20648;-79
2022/08/13 06:32:12;;;;;;;4.60;3.93;;;;;;;24.07;58.94;98174.72;4158876;28;22866;-78
2022/08/13 06:34:35;;;;;;;4.47;4.07;;;;;;;24.25;59.11;98175.97;4169575;28;20715;-79
2022/08/13 06:36:41;;;;;;;4.40;3.97;;;;;;;24.47;59.46;98181.19;4156527;28;20633;-79
2022/08/13 06:38:48;;;;;;;4.50;4.10;;;;;;;24.66;58.94;98184.06;4173530;28;20634;-79
2022/08/13 06:40:59;;;;;;;5.10;4.23;;;;;;;24.82;58.66;98180.31;4173923;28;20656;-79
2022/08/13 06:43:05;;;;;;;6.03;4.37;;;;;;;25.04;57.88;98182.81;4170733;28;20649;-79
2022/08/13 06:45:10;;;;;;;4.70;3.90;;;;;;;25.21;56.92;98181.53;4176799;28;20624;-79
2022/08/13 06:47:14;;;;;;;4.30;3.90;;;;;;;25.20;56.87;98183.38;4156150;28;20632;-79
2022/08/13 06:49:25;;;;;;;3.60;3.30;;;;;;;25.26;57.34;98184.47;4161461;28;21300;-79
2022/08/13 06:51:34;;;;;;;4.63;4.23;;;;;;;25.21;56.76;98187.72;4170643;28;20627;-79
2022/08/13 06:53:45;;;;;;;4.40;3.87;;;;;;;25.19;55.66;98186.25;4176687;28;20662;-80
2022/08/13 06:56:11;;;;;;;4.60;3.70;;;;;;;25.05;56.70;98178.31;4147102;28;20636;-82
2022/08/13 06:58:36;;;;;;;5.33;4.07;;;;;;;25.47;56.18;98179.91;4152366;28;20635;-80
2022/08/13 07:00:41;;;;;;;4.37;3.97;;;;;;;25.88;55.65;98178.13;4167981;28;21416;-81
2022/08/13 07:02:44;;;;;;;4.37;3.97;;;;;;;26.21;54.50;98177.25;4169360;28;20654;-79
2022/08/13 07:04:49;;;;;;;4.60;4.20;;;;;;;26.44;54.26;98181.28;4144399;28;21253;-82
2022/08/13 07:06:57;;;;;;;5.40;3.97;;;;;;;26.62;53.33;98182.34;4151293;28;20726;-78
2022/08/13 07:09:01;;;;;;;4.43;4.03;;;;;;;26.84;53.56;98175.00;4147639;28;20650;-79
2022/08/13 07:11:26;;;;;;;4.20;3.80;;;;;;;27.11;53.00;98178.34;4169876;28;20623;-79
2022/08/13 07:13:43;;;;;;;4.53;4.13;;;;;;;27.37;53.12;98182.91;4167462;28;20639;-78
2022/08/13 07:15:52;;;;;;;3.87;3.57;;;;;;;27.47;52.56;98178.75;4167731;28;21769;-78
2022/08/13 07:18:02;;;;;;;5.00;4.30;;;;;;;27.54;52.20;98180.44;4167456;28;20656;-78
2022/08/13 07:20:06;;;;;;;4.50;3.53;;;;;;;27.80;52.83;98183.06;4167207;28;20651;-80
2022/08/13 07:22:27;;;;;;;5.07;3.60;;;;;;;27.86;51.94;98184.06;4150386;28;20639;-78
2022/08/13 07:24:50;;;;;;;5.07;4.13;;;;;;;28.06;51.43;98175.75;4167489;28;20648;-81
2022/08/13 07:26:59;;;;;;;4.40;4.00;;;;;;;28.29;51.34;98180.66;4153265;28;20704;-81
2022/08/13 07:29:08;;;;;;;4.13;3.73;;;;;;;28.53;51.05;98186.13;4169111;28;20643;-81
2022/08/13 07:31:13;;;;;;;5.70;4.67;;;;;;;28.31;50.97;98189.31;4168725;28;20641;-81
2022/08/13 07:33:17;;;;;;;4.83;3.60;;;;;;;28.33;50.94;98177.34;4174466;28;20630;-81
2022/08/13 07:35:20;;;;;;;4.20;3.90;;;;;;;28.36;50.90;98176.09;4188366;28;21039;-80
2022/08/13 07:37:23;;;;;;;4.17;3.77;;;;;;;28.29;51.09;98170.75;4171707;28;20651;-81
2022/08/13 07:39:30;;;;;;;4.00;3.70;;;;;;;28.46;50.53;98171.91;4152717;28;20640;-79
2022/08/13 07:41:50;;;;;;;4.83;3.30;;;;;;;28.70;50.18;98172.03;4169608;28;20654;-78
2022/08/13 07:44:09;;;;;;;5.43;4.13;;;;;;;29.01;50.78;98178.19;4167577;28;20617;-78
2022/08/13 07:46:15;;;;;;;8.57;3.90;;;;;;;29.25;49.18;98182.81;4172110;28;21508;-78
2022/08/13 07:48:30;;;;;;;4.20;3.90;;;;;;;28.97;49.31;98169.97;4169853;28;20759;-78
2022/08/13 07:50:51;;;;;;;3.63;3.33;;;;;;;29.08;49.40;98170.94;4167311;28;20640;-78
2022/08/13 07:53:09;;;;;;;3.57;3.27;;;;;;;29.20;49.96;98182.63;4184120;28;20632;-81
2022/08/13 07:55:18;;;;;;;3.90;3.50;;;;;;;29.25;49.78;98174.75;4173156;28;20650;-78
2022/08/13 07:57:43;;;;;;;3.90;3.60;;;;;;;29.08;49.37;98173.63;4158171;28;20618;-78
2022/08/13 07:59:48;;;;;;;4.20;3.80;;;;;;;28.72;49.53;98167.25;4191492;28;20726;-79
2022/08/13 08:02:14;;;;;;;4.00;3.70;;;;;;;28.74;50.32;98162.47;4173603;28;21263;-78
2022/08/13 08:04:27;;;;;;;3.70;3.40;;;;;;;29.10;49.46;98163.47;4169121;28;20635;-79
2022/08/13 08:06:33;;;;;;;4.33;3.83;;;;;;;29.21;49.19;98168.16;4170509;28;21552;-78
2022/08/13 08:08:39;;;;;;;4.10;3.80;;;;;;;29.22;49.91;98161.72;4155966;28;20672;-78
2022/08/13 08:10:43;;;;;;;5.00;3.80;;;;;;;28.93;49.57;98163.38;4171905;28;20654;-78
2022/08/13 08:12:47;;;;;;;4.27;3.87;;;;;;;28.83;50.11;98161.19;4153665;28;20738;-78
2022/08/13 08:14:57;;;;;;;4.20;3.80;;;;;;;28.68;50.20;98159.84;4167466;28;20764;-78
2022/08/13 08:17:05;;;;;;;4.57;3.90;;;;;;;28.51;49.99;98164.03;4166187;28;20637;-79
2022/08/13 08:19:28;;;;;;;4.83;3.60;;;;;;;28.62;51.58;98166.84;4164588;28;20662;-79
2022/08/13 08:21:52;;;;;;;4.87;4.37;;;;;;;28.92;50.54;98170.63;4173543;28;20734;-79
2022/08/13 08:24:16;;;;;;;4.37;3.97;;;;;;;28.71;50.31;98164.78;4173192;28;20636;-79
2022/08/13 08:26:34;;;;;;;4.27;3.87;;;;;;;28.59;50.81;98161.09;4156632;28;20652;-78
2022/08/13 08:28:39;;;;;;;4.23;3.83;;;;;;;28.35;50.18;98164.53;4156622;28;20629;-81
2022/08/13 08:30:46;;;;;;;4.23;3.87;;;;;;;27.97;51.16;98154.75;4166515;28;20663;-79
2022/08/13 08:32:53;;;;;;;6.50;3.80;;;;;;;27.72;51.58;98161.00;4164115;28;20634;-79
2022/08/13 08:35:05;;;;;;;4.77;3.90;;;;;;;27.77;51.89;98164.72;4167044;28;20751;-79
2022/08/13 08:42:35;;;;;;;3.90;3.60;;;;;;;27.73;50.68;98157.28;4171172;28;20671;-79
2022/08/13 08:44:32;;;;;;;5.17;3.70;;;;;;;28.91;50.49;98171.66;4187001;28;20621;-79
2022/08/13 08:46:38;;;;;;;5.10;3.53;;;;;;;29.01;49.61;98170.13;4170577;28;21097;-79
2022/08/13 08:48:50;;;;;;;5.03;4.03;;;;;;;28.80;49.86;98163.47;4174350;28;20716;-79
2022/08/13 08:50:58;;;;;;;8.40;3.80;;;;;;;28.47;50.64;98152.06;4168809;28;20625;-79
2022/08/13 08:53:21;;;;;;;3.70;3.40;;;;;;;28.37;50.46;98154.41;4171824;28;20775;-79
2022/08/13 08:55:44;;;;;;;4.30;3.93;;;;;;;28.35;50.40;98151.09;4171936;28;20699;-80
2022/08/13 08:57:55;;;;;;;4.60;3.23;;;;;;;28.36;50.65;98158.13;4163026;28;20731;-79
2022/08/13 09:00:23;;;;;;;3.83;3.53;;;;;;;28.37;49.33;98150.88;4170164;28;20640;-79
2022/08/13 09:02:33;;;;;;;6.40;3.73;;;;;;;28.40;50.45;98154.00;4186851;28;20645;-79
2022/08/13 09:04:38;;;;;;;4.30;3.90;;;;;;;28.52;49.87;98154.94;4165146;28;20725;-79
2022/08/13 09:06:57;;;;;;;4.23;3.50;;;;;;;28.56;49.95;98158.84;4168576;28;20634;-79
2022/08/13 09:09:01;;;;;;;3.90;3.60;;;;;;;28.45;49.63;98153.34;4148266;28;20720;-79
2022/08/13 09:11:05;;;;;;;3.93;3.60;;;;;;;28.47;48.87;98156.63;4172951;28;20908;-79
2022/08/13 09:13:09;;;;;;;3.93;3.63;;;;;;;28.61;49.96;98156.31;4184294;28;20636;-79
2022/08/13 09:15:14;;;;;;;3.70;3.40;;;;;;;28.93;49.26;98153.47;4160396;28;20657;-79
2022/08/13 09:17:19;;;;;;;4.43;3.80;;;;;;;29.21;48.77;98156.56;4173239;28;21260;-79
2022/08/13 09:19:25;;;;;;;4.40;3.13;;;;;;;29.49;47.83;98150.53;4158153;28;20660;-79
2022/08/13 09:21:49;;;;;;;3.50;3.20;;;;;;;29.55;47.99;98149.66;4186198;28;20635;-79
2022/08/13 09:23:53;;;;;;;3.80;3.10;;;;;;;29.69;46.07;98142.25;4156151;28;20673;-79
2022/08/13 09:26:17;;;;;;;3.17;2.90;;;;;;;29.85;47.30;98142.53;4171598;28;20635;-79
2022/08/13 09:28:32;;;;;;;4.10;3.30;;;;;;;30.08;47.15;98145.38;4167957;28;20751;-79
2022/08/13 09:30:41;;;;;;;3.40;3.10;;;;;;;30.06;46.82;98144.78;4177548;28;20634;-79
2022/08/13 09:32:53;;;;;;;3.70;3.30;;;;;;;30.12;46.76;98144.69;4156849;28;20709;-79
2022/08/13 09:34:57;;;;;;;3.60;3.30;;;;;;;30.01;45.67;98141.97;4175444;28;20730;-79
2022/08/13 09:37:01;;;;;;;8.10;2.90;;;;;;;29.98;45.65;98145.09;4168560;28;20630;-80
2022/08/13 09:39:04;;;;;;;7.03;2.97;;;;;;;30.03;46.46;98140.66;4165628;28;21199;-79
2022/08/13 09:41:16;;;;;;;3.80;3.27;;;;;;;29.94;45.88;98133.13;4184835;28;20639;-80
2022/08/13 09:43:27;;;;;;;6.27;3.20;;;;;;;29.79;46.55;98140.75;4169743;28;20621;-79
2022/08/13 09:45:48;;;;;;;3.77;3.20;;;;;;;29.81;46.24;98132.44;4156275;28;21036;-80
2022/08/13 09:47:52;;;;;;;3.37;3.03;;;;;;;29.91;46.15;98124.69;4169316;28;20794;-80
2022/08/13 09:50:16;;;;;;;3.20;2.90;;;;;;;29.98;46.69;98132.44;4172498;28;20647;-80
2022/08/13 09:52:20;;;;;;;3.40;3.10;;;;;;;30.07;46.13;98128.41;4170228;28;20628;-80
2022/08/13 09:54:28;;;;;;;3.70;3.40;;;;;;;29.93;46.13;98127.97;4166085;28;20746;-80
2022/08/13 09:56:33;;;;;;;3.17;2.70;;;;;;;30.07;45.65;98131.09;4190519;28;21060;-80
2022/08/13 09:58:36;;;;;;;3.27;2.97;;;;;;;30.01;45.51;98123.94;4167718;28;20634;-80
2022/08/13 10:00:46;;;;;;;3.60;3.00;;;;;;;29.94;46.17;98126.94;4168597;28;20643;-79
2022/08/13 10:02:52;;;;;;;3.47;2.85;;;;;;;29.91;45.95;98128.19;4165341;28;20751;-80
2022/08/13 10:04:57;;;;;;;5.27;3.50;;;;;;;29.80;46.06;98125.41;4170667;28;20206;-79
2022/08/13 10:07:02;;;;;;;3.30;3.00;;;;;;;29.59;46.03;98121.28;4168357;28;20723;-80
2022/08/13 10:09:14;;;;;;;3.20;2.90;;;;;;;29.22;46.60;98116.00;4154997;28;20629;-80
2022/08/13 10:11:22;;;;;;;5.43;2.90;;;;;;;28.92;45.66;98113.38;4182627;28;20643;-79
2022/08/13 10:13:45;;;;;;;5.67;3.20;;;;;;;28.83;46.93;98114.69;4168554;28;20651;-80
2022/08/13 10:15:53;;;;;;;5.13;3.40;;;;;;;29.01;47.54;98119.06;4167418;28;20657;-80
2022/08/13 10:17:59;;;;;;;3.40;3.10;;;;;;;29.23;47.12;98112.31;4165300;28;20662;-80
2022/08/13 10:20:07;;;;;;;4.03;3.50;;;;;;;29.49;46.79;98106.69;4172970;28;20640;-80
2022/08/13 10:22:12;;;;;;;4.23;3.07;;;;;;;29.66;46.50;98122.00;4169584;28;20635;-80
2022/08/13 10:24:15;;;;;;;4.10;3.10;;;;;;;29.48;45.03;98107.72;4171905;28;21059;-80
2022/08/13 10:26:19;;;;;;;4.10;3.20;;;;;;;29.46;45.14;98102.56;4174201;28;20633;-79
2022/08/13 10:28:24;;;;;;;3.70;3.40;;;;;;;29.62;45.32;98109.25;4170141;28;20659;-80
2022/08/13 10:30:33;;;;;;;3.67;3.10;;;;;;;29.74;44.78;98104.75;4164997;28;20729;-80
2022/08/13 10:32:56;;;;;;;4.50;2.93;;;;;;;29.75;44.34;98101.03;4175551;28;20668;-80